sensor_id;sensor_type;location;lat;lon;timestamp;temperature;humidity
67901;DHT22;54700;51.796;10.956;2022-11-20T00:00:13;-3.80;92.30
67901;DHT22;54700;51.796;10.956;2022-11-20T00:02:41;-3.80;92.20
67901;DHT22;54700;51.796;10.956;2022-11-20T00:05:08;-3.80;91.90
67901;DHT22;54700;51.796;10.956;2022-11-20T00:07:35;-3.80;92.10
67901;DHT22;54700;51.796;10.956;2022-11-20T00:10:03;-3.80;92.10
67901;DHT22;54700;51.796;10.956;2022-11-20T00:12:31;-3.80;92.20
67901;DHT22;54700;51.796;10.956;2022-11-20T00:14:58;-3.80;92.40
67901;DHT22;54700;51.796;10.956;2022-11-20T00:17:24;-3.80;92.40
67901;DHT22;54700;51.796;10.956;2022-11-20T00:19:51;-3.80;92.60
67901;DHT22;54700;51.796;10.956;2022-11-20T00:22:18;-3.80;92.30
67901;DHT22;54700;51.796;10.956;2022-11-20T00:24:45;-3.90;92.10
67901;DHT22;54700;51.796;10.956;2022-11-20T00:27:13;-3.90;92.10
67901;DHT22;54700;51.796;10.956;2022-11-20T00:29:39;-4.00;92.30
67901;DHT22;54700;51.796;10.956;2022-11-20T00:32:06;-3.90;92.40
67901;DHT22;54700;51.796;10.956;2022-11-20T00:34:33;-3.90;92.40
67901;DHT22;54700;51.796;10.956;2022-11-20T00:37:00;-3.90;92.40
67901;DHT22;54700;51.796;10.956;2022-11-20T00:39:26;-3.90;92.40
67901;DHT22;54700;51.796;10.956;2022-11-20T00:41:53;-3.90;92.40
67901;DHT22;54700;51.796;10.956;2022-11-20T00:44:21;-3.90;92.60
67901;DHT22;54700;51.796;10.956;2022-11-20T00:46:48;-3.80;92.50
67901;DHT22;54700;51.796;10.956;2022-11-20T00:49:14;-3.80;92.50
67901;DHT22;54700;51.796;10.956;2022-11-20T00:51:41;-3.80;92.50
67901;DHT22;54700;51.796;10.956;2022-11-20T00:54:08;-3.80;92.40
67901;DHT22;54700;51.796;10.956;2022-11-20T00:56:35;-3.80;92.40
67901;DHT22;54700;51.796;10.956;2022-11-20T00:59:02;-3.80;92.40
67901;DHT22;54700;51.796;10.956;2022-11-20T01:01:30;-3.80;92.50
67901;DHT22;54700;51.796;10.956;2022-11-20T01:03:57;-3.80;92.40
67901;DHT22;54700;51.796;10.956;2022-11-20T01:06:26;-3.80;92.40
67901;DHT22;54700;51.796;10.956;2022-11-20T01:08:55;-3.80;92.30
67901;DHT22;54700;51.796;10.956;2022-11-20T01:11:23;-3.90;92.20
67901;DHT22;54700;51.796;10.956;2022-11-20T01:13:53;-3.90;92.30
67901;DHT22;54700;51.796;10.956;2022-11-20T01:16:21;-3.90;92.40
67901;DHT22;54700;51.796;10.956;2022-11-20T01:18:51;-3.90;92.40
67901;DHT22;54700;51.796;10.956;2022-11-20T01:21:20;-3.90;92.40
67901;DHT22;54700;51.796;10.956;2022-11-20T01:23:49;-3.90;92.40
67901;DHT22;54700;51.796;10.956;2022-11-20T01:26:17;-3.90;92.60
67901;DHT22;54700;51.796;10.956;2022-11-20T01:28:45;-3.90;92.70
67901;DHT22;54700;51.796;10.956;2022-11-20T01:31:13;-3.90;92.70
67901;DHT22;54700;51.796;10.956;2022-11-20T01:33:45;-3.90;92.70
67901;DHT22;54700;51.796;10.956;2022-11-20T01:36:13;-4.00;92.70
67901;DHT22;54700;51.796;10.956;2022-11-20T01:38:41;-4.00;92.70
67901;DHT22;54700;51.796;10.956;2022-11-20T01:41:09;-3.90;92.80
67901;DHT22;54700;51.796;10.956;2022-11-20T01:43:56;-3.90;92.80
67901;DHT22;54700;51.796;10.956;2022-11-20T01:46:22;-3.90;92.70
67901;DHT22;54700;51.796;10.956;2022-11-20T01:48:50;-3.90;92.60
67901;DHT22;54700;51.796;10.956;2022-11-20T01:51:23;-3.90;92.50
67901;DHT22;54700;51.796;10.956;2022-11-20T01:53:55;-3.90;92.40
67901;DHT22;54700;51.796;10.956;2022-11-20T01:56:26;-3.90;92.40
67901;DHT22;54700;51.796;10.956;2022-11-20T01:58:56;-3.90;92.50
67901;DHT22;54700;51.796;10.956;2022-11-20T02:01:26;-3.90;92.60
67901;DHT22;54700;51.796;10.956;2022-11-20T02:03:52;-3.90;92.50
67901;DHT22;54700;51.796;10.956;2022-11-20T02:06:23;-3.90;92.60
67901;DHT22;54700;51.796;10.956;2022-11-20T02:08:52;-4.00;92.60
67901;DHT22;54700;51.796;10.956;2022-11-20T02:11:19;-3.90;92.60
67901;DHT22;54700;51.796;10.956;2022-11-20T02:13:46;-3.90;92.60
67901;DHT22;54700;51.796;10.956;2022-11-20T02:16:14;-3.90;92.40
67901;DHT22;54700;51.796;10.956;2022-11-20T02:18:43;-3.90;92.30
67901;DHT22;54700;51.796;10.956;2022-11-20T02:21:13;-4.00;92.10
67901;DHT22;54700;51.796;10.956;2022-11-20T02:23:54;-4.00;92.10
67901;DHT22;54700;51.796;10.956;2022-11-20T02:26:26;-4.00;92.30
67901;DHT22;54700;51.796;10.956;2022-11-20T02:28:54;-4.00;92.50
67901;DHT22;54700;51.796;10.956;2022-11-20T02:31:21;-4.10;92.50
67901;DHT22;54700;51.796;10.956;2022-11-20T02:33:47;-4.10;92.60
67901;DHT22;54700;51.796;10.956;2022-11-20T02:36:21;-4.10;92.60
67901;DHT22;54700;51.796;10.956;2022-11-20T02:38:48;-4.10;92.40
67901;DHT22;54700;51.796;10.956;2022-11-20T02:41:17;-4.10;92.40
67901;DHT22;54700;51.796;10.956;2022-11-20T02:43:44;-4.20;92.20
67901;DHT22;54700;51.796;10.956;2022-11-20T02:46:11;-4.20;92.10
67901;DHT22;54700;51.796;10.956;2022-11-20T02:48:37;-4.20;92.20
67901;DHT22;54700;51.796;10.956;2022-11-20T02:51:04;-4.30;92.10
67901;DHT22;54700;51.796;10.956;2022-11-20T02:53:31;-4.20;92.30
67901;DHT22;54700;51.796;10.956;2022-11-20T02:55:58;-4.20;92.10
67901;DHT22;54700;51.796;10.956;2022-11-20T02:58:26;-4.30;92.10
67901;DHT22;54700;51.796;10.956;2022-11-20T03:00:53;-4.30;92.30
67901;DHT22;54700;51.796;10.956;2022-11-20T03:03:19;-4.30;92.50
67901;DHT22;54700;51.796;10.956;2022-11-20T03:05:46;-4.30;92.50
67901;DHT22;54700;51.796;10.956;2022-11-20T03:08:13;-4.30;92.40
67901;DHT22;54700;51.796;10.956;2022-11-20T03:10:39;-4.30;92.30
67901;DHT22;54700;51.796;10.956;2022-11-20T03:13:06;-4.30;92.20
67901;DHT22;54700;51.796;10.956;2022-11-20T03:15:35;-4.20;92.60
67901;DHT22;54700;51.796;10.956;2022-11-20T03:18:02;-4.20;92.40
67901;DHT22;54700;51.796;10.956;2022-11-20T03:20:29;-4.30;92.40
67901;DHT22;54700;51.796;10.956;2022-11-20T03:22:56;-4.30;92.30
67901;DHT22;54700;51.796;10.956;2022-11-20T03:25:22;-4.30;92.20
67901;DHT22;54700;51.796;10.956;2022-11-20T03:27:49;-4.30;92.10
67901;DHT22;54700;51.796;10.956;2022-11-20T03:30:16;-4.30;92.10
67901;DHT22;54700;51.796;10.956;2022-11-20T03:32:44;-4.30;92.40
67901;DHT22;54700;51.796;10.956;2022-11-20T03:35:11;-4.30;92.00
67901;DHT22;54700;51.796;10.956;2022-11-20T03:37:38;-4.30;92.10
67901;DHT22;54700;51.796;10.956;2022-11-20T03:40:05;-4.30;92.20
67901;DHT22;54700;51.796;10.956;2022-11-20T03:42:33;-4.30;92.10
67901;DHT22;54700;51.796;10.956;2022-11-20T03:45:12;-4.30;92.10
67901;DHT22;54700;51.796;10.956;2022-11-20T03:47:39;-4.30;92.10
67901;DHT22;54700;51.796;10.956;2022-11-20T03:50:08;-4.40;92.10
67901;DHT22;54700;51.796;10.956;2022-11-20T03:52:35;-4.30;92.00
67901;DHT22;54700;51.796;10.956;2022-11-20T03:55:02;-4.40;92.00
67901;DHT22;54700;51.796;10.956;2022-11-20T03:57:29;-4.30;92.10
67901;DHT22;54700;51.796;10.956;2022-11-20T03:59:56;-4.30;92.20
67901;DHT22;54700;51.796;10.956;2022-11-20T04:02:23;-4.30;92.20
67901;DHT22;54700;51.796;10.956;2022-11-20T04:04:50;-4.30;92.30
67901;DHT22;54700;51.796;10.956;2022-11-20T04:07:18;-4.20;92.20
67901;DHT22;54700;51.796;10.956;2022-11-20T04:09:44;-4.20;92.20
67901;DHT22;54700;51.796;10.956;2022-11-20T04:12:11;-4.20;92.00
67901;DHT22;54700;51.796;10.956;2022-11-20T04:14:38;-4.20;91.80
67901;DHT22;54700;51.796;10.956;2022-11-20T04:17:05;-4.20;91.80
67901;DHT22;54700;51.796;10.956;2022-11-20T04:19:31;-4.20;91.70
67901;DHT22;54700;51.796;10.956;2022-11-20T04:21:58;-4.20;91.90
67901;DHT22;54700;51.796;10.956;2022-11-20T04:24:27;-4.10;91.90
67901;DHT22;54700;51.796;10.956;2022-11-20T04:26:53;-4.10;91.80
67901;DHT22;54700;51.796;10.956;2022-11-20T04:29:20;-4.10;91.50
67901;DHT22;54700;51.796;10.956;2022-11-20T04:31:47;-4.10;91.70
67901;DHT22;54700;51.796;10.956;2022-11-20T04:34:14;-4.10;91.40
67901;DHT22;54700;51.796;10.956;2022-11-20T04:36:41;-4.10;91.50
67901;DHT22;54700;51.796;10.956;2022-11-20T04:39:11;-4.20;91.80
67901;DHT22;54700;51.796;10.956;2022-11-20T04:41:40;-4.20;91.60
67901;DHT22;54700;51.796;10.956;2022-11-20T04:44:07;-4.20;91.50
67901;DHT22;54700;51.796;10.956;2022-11-20T04:46:35;-4.30;91.60
67901;DHT22;54700;51.796;10.956;2022-11-20T04:49:03;-4.30;91.70
67901;DHT22;54700;51.796;10.956;2022-11-20T04:51:30;-4.30;91.80
67901;DHT22;54700;51.796;10.956;2022-11-20T04:53:57;-4.40;91.80
67901;DHT22;54700;51.796;10.956;2022-11-20T04:56:24;-4.40;91.90
67901;DHT22;54700;51.796;10.956;2022-11-20T04:58:52;-4.40;92.00
67901;DHT22;54700;51.796;10.956;2022-11-20T05:01:20;-4.30;92.10
67901;DHT22;54700;51.796;10.956;2022-11-20T05:03:48;-4.30;91.90
67901;DHT22;54700;51.796;10.956;2022-11-20T05:06:17;-4.30;91.70
67901;DHT22;54700;51.796;10.956;2022-11-20T05:08:44;-4.30;91.80
67901;DHT22;54700;51.796;10.956;2022-11-20T05:11:11;-4.40;91.80
67901;DHT22;54700;51.796;10.956;2022-11-20T05:13:39;-4.30;91.70
67901;DHT22;54700;51.796;10.956;2022-11-20T05:16:09;-4.40;91.60
67901;DHT22;54700;51.796;10.956;2022-11-20T05:18:37;-4.40;91.70
67901;DHT22;54700;51.796;10.956;2022-11-20T05:21:04;-4.40;91.60
67901;DHT22;54700;51.796;10.956;2022-11-20T05:23:32;-4.40;91.40
67901;DHT22;54700;51.796;10.956;2022-11-20T05:25:59;-4.30;91.50
67901;DHT22;54700;51.796;10.956;2022-11-20T05:28:26;-4.40;91.40
67901;DHT22;54700;51.796;10.956;2022-11-20T05:30:54;-4.40;91.50
67901;DHT22;54700;51.796;10.956;2022-11-20T05:33:22;-4.40;91.50
67901;DHT22;54700;51.796;10.956;2022-11-20T05:35:49;-4.40;91.40
67901;DHT22;54700;51.796;10.956;2022-11-20T05:38:16;-4.40;91.50
67901;DHT22;54700;51.796;10.956;2022-11-20T05:40:43;-4.40;91.60
67901;DHT22;54700;51.796;10.956;2022-11-20T05:43:09;-4.40;91.40
67901;DHT22;54700;51.796;10.956;2022-11-20T05:45:36;-4.40;91.30
67901;DHT22;54700;51.796;10.956;2022-11-20T05:48:03;-4.40;91.40
67901;DHT22;54700;51.796;10.956;2022-11-20T05:50:31;-4.40;91.30
67901;DHT22;54700;51.796;10.956;2022-11-20T05:52:58;-4.40;91.30
67901;DHT22;54700;51.796;10.956;2022-11-20T05:55:25;-4.50;91.20
67901;DHT22;54700;51.796;10.956;2022-11-20T05:57:52;-4.50;91.20
67901;DHT22;54700;51.796;10.956;2022-11-20T06:00:20;-4.60;91.20
67901;DHT22;54700;51.796;10.956;2022-11-20T06:02:47;-4.60;91.10
67901;DHT22;54700;51.796;10.956;2022-11-20T06:05:13;-4.60;91.20
67901;DHT22;54700;51.796;10.956;2022-11-20T06:07:42;-4.60;91.20
67901;DHT22;54700;51.796;10.956;2022-11-20T06:10:09;-4.60;91.30
67901;DHT22;54700;51.796;10.956;2022-11-20T06:12:36;-4.60;91.50
67901;DHT22;54700;51.796;10.956;2022-11-20T06:15:03;-4.60;91.40
67901;DHT22;54700;51.796;10.956;2022-11-20T06:17:31;-4.60;91.20
67901;DHT22;54700;51.796;10.956;2022-11-20T06:19:58;-4.60;91.30
67901;DHT22;54700;51.796;10.956;2022-11-20T06:22:24;-4.60;91.00
67901;DHT22;54700;51.796;10.956;2022-11-20T06:24:52;-4.60;90.40
67901;DHT22;54700;51.796;10.956;2022-11-20T06:27:19;-4.60;90.20
67901;DHT22;54700;51.796;10.956;2022-11-20T06:29:46;-4.50;90.00
67901;DHT22;54700;51.796;10.956;2022-11-20T06:32:13;-4.50;89.90
67901;DHT22;54700;51.796;10.956;2022-11-20T06:34:39;-4.50;89.90
67901;DHT22;54700;51.796;10.956;2022-11-20T06:37:06;-4.50;90.20
67901;DHT22;54700;51.796;10.956;2022-11-20T06:39:33;-4.60;90.00
67901;DHT22;54700;51.796;10.956;2022-11-20T06:42:01;-4.60;90.30
67901;DHT22;54700;51.796;10.956;2022-11-20T06:44:28;-4.70;90.40
67901;DHT22;54700;51.796;10.956;2022-11-20T06:46:55;-4.70;90.60
67901;DHT22;54700;51.796;10.956;2022-11-20T06:49:21;-4.70;90.70
67901;DHT22;54700;51.796;10.956;2022-11-20T06:51:48;-4.70;90.80
67901;DHT22;54700;51.796;10.956;2022-11-20T06:54:15;-4.70;90.40
67901;DHT22;54700;51.796;10.956;2022-11-20T06:56:41;-4.70;90.30
67901;DHT22;54700;51.796;10.956;2022-11-20T06:59:09;-4.70;90.50
67901;DHT22;54700;51.796;10.956;2022-11-20T07:01:36;-4.80;90.70
67901;DHT22;54700;51.796;10.956;2022-11-20T07:04:03;-4.80;90.80
67901;DHT22;54700;51.796;10.956;2022-11-20T07:06:30;-4.80;91.00
67901;DHT22;54700;51.796;10.956;2022-11-20T07:08:57;-4.80;91.10
67901;DHT22;54700;51.796;10.956;2022-11-20T07:11:24;-4.70;91.00
67901;DHT22;54700;51.796;10.956;2022-11-20T07:13:51;-4.70;91.10
67901;DHT22;54700;51.796;10.956;2022-11-20T07:16:19;-4.70;91.00
67901;DHT22;54700;51.796;10.956;2022-11-20T07:18:46;-4.60;90.50
67901;DHT22;54700;51.796;10.956;2022-11-20T07:21:13;-4.70;90.50
67901;DHT22;54700;51.796;10.956;2022-11-20T07:23:40;-4.60;90.70
67901;DHT22;54700;51.796;10.956;2022-11-20T07:26:07;-4.60;90.80
67901;DHT22;54700;51.796;10.956;2022-11-20T07:28:35;-4.60;90.90
67901;DHT22;54700;51.796;10.956;2022-11-20T07:31:02;-4.60;91.00
67901;DHT22;54700;51.796;10.956;2022-11-20T07:33:31;-4.50;91.10
67901;DHT22;54700;51.796;10.956;2022-11-20T07:35:58;-4.40;91.20
67901;DHT22;54700;51.796;10.956;2022-11-20T07:38:25;-4.40;91.20
67901;DHT22;54700;51.796;10.956;2022-11-20T07:40:53;-4.30;91.30
67901;DHT22;54700;51.796;10.956;2022-11-20T07:43:20;-4.20;91.30
67901;DHT22;54700;51.796;10.956;2022-11-20T07:45:47;-4.20;91.40
67901;DHT22;54700;51.796;10.956;2022-11-20T07:48:14;-4.10;91.40
67901;DHT22;54700;51.796;10.956;2022-11-20T07:50:42;-4.00;91.50
67901;DHT22;54700;51.796;10.956;2022-11-20T07:53:09;-3.90;91.50
67901;DHT22;54700;51.796;10.956;2022-11-20T07:55:37;-3.80;91.40
67901;DHT22;54700;51.796;10.956;2022-11-20T07:58:04;-3.70;91.30
67901;DHT22;54700;51.796;10.956;2022-11-20T08:00:31;-3.60;90.60
67901;DHT22;54700;51.796;10.956;2022-11-20T08:02:58;-3.40;89.50
67901;DHT22;54700;51.796;10.956;2022-11-20T08:05:24;-3.30;89.30
67901;DHT22;54700;51.796;10.956;2022-11-20T08:07:52;-3.20;89.70
67901;DHT22;54700;51.796;10.956;2022-11-20T08:10:19;-3.10;89.60
67901;DHT22;54700;51.796;10.956;2022-11-20T08:12:46;-3.00;88.90
67901;DHT22;54700;51.796;10.956;2022-11-20T08:15:31;-2.90;88.80
67901;DHT22;54700;51.796;10.956;2022-11-20T08:17:59;-2.90;89.50
67901;DHT22;54700;51.796;10.956;2022-11-20T08:20:27;-2.80;89.70
67901;DHT22;54700;51.796;10.956;2022-11-20T08:22:58;-2.70;90.10
67901;DHT22;54700;51.796;10.956;2022-11-20T08:25:26;-2.70;90.00
67901;DHT22;54700;51.796;10.956;2022-11-20T08:27:53;-2.60;89.70
67901;DHT22;54700;51.796;10.956;2022-11-20T08:30:19;-2.60;89.00
67901;DHT22;54700;51.796;10.956;2022-11-20T08:32:46;-2.50;89.10
67901;DHT22;54700;51.796;10.956;2022-11-20T08:35:13;-2.40;88.10
67901;DHT22;54700;51.796;10.956;2022-11-20T08:37:40;-2.30;89.10
67901;DHT22;54700;51.796;10.956;2022-11-20T08:40:10;-2.20;86.80
67901;DHT22;54700;51.796;10.956;2022-11-20T08:42:45;-2.10;85.50
67901;DHT22;54700;51.796;10.956;2022-11-20T08:45:12;-2.00;85.90
67901;DHT22;54700;51.796;10.956;2022-11-20T08:47:39;-1.90;84.90
67901;DHT22;54700;51.796;10.956;2022-11-20T08:50:06;-1.80;86.80
67901;DHT22;54700;51.796;10.956;2022-11-20T08:52:34;-1.70;88.30
67901;DHT22;54700;51.796;10.956;2022-11-20T08:55:01;-1.80;88.70
67901;DHT22;54700;51.796;10.956;2022-11-20T08:57:30;-1.80;89.00
67901;DHT22;54700;51.796;10.956;2022-11-20T08:59:57;-1.70;89.30
67901;DHT22;54700;51.796;10.956;2022-11-20T09:02:24;-1.70;89.60
67901;DHT22;54700;51.796;10.956;2022-11-20T09:04:51;-1.70;89.90
67901;DHT22;54700;51.796;10.956;2022-11-20T09:07:18;-1.60;88.70
67901;DHT22;54700;51.796;10.956;2022-11-20T09:09:45;-1.40;87.10
67901;DHT22;54700;51.796;10.956;2022-11-20T09:12:13;-1.20;86.00
67901;DHT22;54700;51.796;10.956;2022-11-20T09:14:41;-1.10;86.80
67901;DHT22;54700;51.796;10.956;2022-11-20T09:17:09;-1.00;85.10
67901;DHT22;54700;51.796;10.956;2022-11-20T09:19:38;-0.90;84.10
67901;DHT22;54700;51.796;10.956;2022-11-20T09:22:06;-0.80;83.20
67901;DHT22;54700;51.796;10.956;2022-11-20T09:24:33;-0.70;82.20
67901;DHT22;54700;51.796;10.956;2022-11-20T09:27:01;-0.50;80.10
67901;DHT22;54700;51.796;10.956;2022-11-20T09:29:28;-0.40;79.60
67901;DHT22;54700;51.796;10.956;2022-11-20T09:31:56;-0.40;78.50
67901;DHT22;54700;51.796;10.956;2022-11-20T09:34:23;-0.30;78.30
67901;DHT22;54700;51.796;10.956;2022-11-20T09:36:50;-0.30;78.00
67901;DHT22;54700;51.796;10.956;2022-11-20T09:39:17;-0.30;76.60
67901;DHT22;54700;51.796;10.956;2022-11-20T09:41:47;-0.20;76.30
67901;DHT22;54700;51.796;10.956;2022-11-20T09:44:29;-0.20;76.20
67901;DHT22;54700;51.796;10.956;2022-11-20T09:47:09;-0.10;76.00
67901;DHT22;54700;51.796;10.956;2022-11-20T09:49:50;-0.10;76.80
67901;DHT22;54700;51.796;10.956;2022-11-20T09:52:27;-0.10;78.10
67901;DHT22;54700;51.796;10.956;2022-11-20T09:55:03;-0.10;77.70
67901;DHT22;54700;51.796;10.956;2022-11-20T09:57:35;0.00;77.60
67901;DHT22;54700;51.796;10.956;2022-11-20T10:00:05;-0.10;78.70
67901;DHT22;54700;51.796;10.956;2022-11-20T10:02:39;0.00;79.50
67901;DHT22;54700;51.796;10.956;2022-11-20T10:05:12;0.00;81.40
67901;DHT22;54700;51.796;10.956;2022-11-20T10:07:45;0.00;80.90
67901;DHT22;54700;51.796;10.956;2022-11-20T10:10:22;0.10;81.10
67901;DHT22;54700;51.796;10.956;2022-11-20T10:13:00;0.10;82.10
67901;DHT22;54700;51.796;10.956;2022-11-20T10:15:38;0.00;81.70
67901;DHT22;54700;51.796;10.956;2022-11-20T10:18:20;0.00;81.30
67901;DHT22;54700;51.796;10.956;2022-11-20T10:20:55;0.00;81.50
67901;DHT22;54700;51.796;10.956;2022-11-20T10:23:38;0.00;81.50
67901;DHT22;54700;51.796;10.956;2022-11-20T10:26:17;0.00;81.20
67901;DHT22;54700;51.796;10.956;2022-11-20T10:28:52;0.00;82.50
67901;DHT22;54700;51.796;10.956;2022-11-20T10:31:29;0.00;82.20
67901;DHT22;54700;51.796;10.956;2022-11-20T10:34:00;0.00;82.70
67901;DHT22;54700;51.796;10.956;2022-11-20T10:36:33;0.00;82.40
67901;DHT22;54700;51.796;10.956;2022-11-20T10:39:05;0.00;80.60
67901;DHT22;54700;51.796;10.956;2022-11-20T10:41:44;0.10;79.70
67901;DHT22;54700;51.796;10.956;2022-11-20T10:44:16;0.10;79.90
67901;DHT22;54700;51.796;10.956;2022-11-20T10:47:11;0.20;77.60
67901;DHT22;54700;51.796;10.956;2022-11-20T10:49:42;0.30;78.70
67901;DHT22;54700;51.796;10.956;2022-11-20T10:52:13;0.30;78.20
67901;DHT22;54700;51.796;10.956;2022-11-20T10:54:49;0.30;79.50
67901;DHT22;54700;51.796;10.956;2022-11-20T10:57:25;0.40;80.00
67901;DHT22;54700;51.796;10.956;2022-11-20T11:00:03;0.40;80.30
67901;DHT22;54700;51.796;10.956;2022-11-20T11:02:32;0.40;81.30
67901;DHT22;54700;51.796;10.956;2022-11-20T11:05:14;0.40;82.70
67901;DHT22;54700;51.796;10.956;2022-11-20T11:07:49;0.40;80.00
67901;DHT22;54700;51.796;10.956;2022-11-20T11:10:19;0.50;82.20
67901;DHT22;54700;51.796;10.956;2022-11-20T11:12:50;0.50;82.50
67901;DHT22;54700;51.796;10.956;2022-11-20T11:15:24;0.60;82.20
67901;DHT22;54700;51.796;10.956;2022-11-20T11:17:53;0.60;81.80
67901;DHT22;54700;51.796;10.956;2022-11-20T11:20:22;0.80;80.30
67901;DHT22;54700;51.796;10.956;2022-11-20T11:22:52;0.90;80.10
67901;DHT22;54700;51.796;10.956;2022-11-20T11:25:25;1.00;77.50
67901;DHT22;54700;51.796;10.956;2022-11-20T11:27:55;1.20;77.10
67901;DHT22;54700;51.796;10.956;2022-11-20T11:30:25;1.40;76.30
67901;DHT22;54700;51.796;10.956;2022-11-20T11:33:03;1.50;74.00
67901;DHT22;54700;51.796;10.956;2022-11-20T11:35:33;1.50;73.80
67901;DHT22;54700;51.796;10.956;2022-11-20T11:38:04;1.50;76.40
67901;DHT22;54700;51.796;10.956;2022-11-20T11:40:34;1.50;75.90
67901;DHT22;54700;51.796;10.956;2022-11-20T11:43:04;1.60;74.00
67901;DHT22;54700;51.796;10.956;2022-11-20T11:45:53;1.70;72.20
67901;DHT22;54700;51.796;10.956;2022-11-20T11:48:20;1.70;72.60
67901;DHT22;54700;51.796;10.956;2022-11-20T11:50:49;1.60;73.10
67901;DHT22;54700;51.796;10.956;2022-11-20T11:53:17;1.60;72.90
67901;DHT22;54700;51.796;10.956;2022-11-20T11:55:46;1.50;74.50
67901;DHT22;54700;51.796;10.956;2022-11-20T11:58:19;1.40;76.30
67901;DHT22;54700;51.796;10.956;2022-11-20T12:01:01;1.40;78.40
67901;DHT22;54700;51.796;10.956;2022-11-20T12:03:34;1.40;75.30
67901;DHT22;54700;51.796;10.956;2022-11-20T12:06:05;1.50;75.50
67901;DHT22;54700;51.796;10.956;2022-11-20T12:08:38;1.60;75.30
67901;DHT22;54700;51.796;10.956;2022-11-20T12:11:12;1.70;74.00
67901;DHT22;54700;51.796;10.956;2022-11-20T12:13:46;1.80;73.30
67901;DHT22;54700;51.796;10.956;2022-11-20T12:16:19;1.90;72.20
67901;DHT22;54700;51.796;10.956;2022-11-20T12:18:48;1.90;73.10
67901;DHT22;54700;51.796;10.956;2022-11-20T12:21:19;2.00;70.60
67901;DHT22;54700;51.796;10.956;2022-11-20T12:23:56;2.10;70.20
67901;DHT22;54700;51.796;10.956;2022-11-20T12:26:37;2.10;69.50
67901;DHT22;54700;51.796;10.956;2022-11-20T12:29:18;2.10;73.90
67901;DHT22;54700;51.796;10.956;2022-11-20T12:32:03;2.00;73.20
67901;DHT22;54700;51.796;10.956;2022-11-20T12:34:52;2.00;71.20
67901;DHT22;54700;51.796;10.956;2022-11-20T12:37:33;2.00;72.10
67901;DHT22;54700;51.796;10.956;2022-11-20T12:40:14;2.10;72.90
67901;DHT22;54700;51.796;10.956;2022-11-20T12:42:56;2.00;71.00
67901;DHT22;54700;51.796;10.956;2022-11-20T12:48:42;2.00;76.20
67901;DHT22;54700;51.796;10.956;2022-11-20T12:51:25;2.00;69.10
67901;DHT22;54700;51.796;10.956;2022-11-20T12:54:22;2.10;65.80
67901;DHT22;54700;51.796;10.956;2022-11-20T12:57:01;2.10;68.40
67901;DHT22;54700;51.796;10.956;2022-11-20T12:59:42;2.10;72.00
67901;DHT22;54700;51.796;10.956;2022-11-20T13:02:20;2.10;73.20
67901;DHT22;54700;51.796;10.956;2022-11-20T13:04:55;2.00;74.20
67901;DHT22;54700;51.796;10.956;2022-11-20T13:07:36;1.90;75.90
67901;DHT22;54700;51.796;10.956;2022-11-20T13:10:04;1.70;76.40
67901;DHT22;54700;51.796;10.956;2022-11-20T13:12:41;1.60;75.60
67901;DHT22;54700;51.796;10.956;2022-11-20T13:15:17;1.50;76.50
67901;DHT22;54700;51.796;10.956;2022-11-20T13:17:51;1.40;77.50
67901;DHT22;54700;51.796;10.956;2022-11-20T13:20:21;1.40;77.90
67901;DHT22;54700;51.796;10.956;2022-11-20T13:22:48;1.30;78.00
67901;DHT22;54700;51.796;10.956;2022-11-20T13:25:25;1.30;79.10
67901;DHT22;54700;51.796;10.956;2022-11-20T13:27:54;1.30;78.40
67901;DHT22;54700;51.796;10.956;2022-11-20T13:30:22;1.20;81.50
67901;DHT22;54700;51.796;10.956;2022-11-20T13:32:51;1.20;79.10
67901;DHT22;54700;51.796;10.956;2022-11-20T13:35:24;1.20;80.70
67901;DHT22;54700;51.796;10.956;2022-11-20T13:37:59;1.10;80.00
67901;DHT22;54700;51.796;10.956;2022-11-20T13:40:33;1.10;80.40
67901;DHT22;54700;51.796;10.956;2022-11-20T13:43:04;1.00;80.60
67901;DHT22;54700;51.796;10.956;2022-11-20T13:45:37;1.00;82.50
67901;DHT22;54700;51.796;10.956;2022-11-20T13:48:04;1.00;82.60
67901;DHT22;54700;51.796;10.956;2022-11-20T13:50:54;1.00;82.50
67901;DHT22;54700;51.796;10.956;2022-11-20T13:53:40;1.00;83.90
67901;DHT22;54700;51.796;10.956;2022-11-20T13:56:23;1.00;84.50
67901;DHT22;54700;51.796;10.956;2022-11-20T13:58:58;1.00;84.50
67901;DHT22;54700;51.796;10.956;2022-11-20T14:01:33;0.90;84.00
67901;DHT22;54700;51.796;10.956;2022-11-20T14:04:00;0.90;85.20
67901;DHT22;54700;51.796;10.956;2022-11-20T14:06:34;0.90;84.60
67901;DHT22;54700;51.796;10.956;2022-11-20T14:09:10;0.90;85.00
67901;DHT22;54700;51.796;10.956;2022-11-20T14:11:46;0.90;85.30
67901;DHT22;54700;51.796;10.956;2022-11-20T14:14:15;0.80;86.60
67901;DHT22;54700;51.796;10.956;2022-11-20T14:16:44;0.80;87.20
67901;DHT22;54700;51.796;10.956;2022-11-20T14:19:23;0.70;86.30
67901;DHT22;54700;51.796;10.956;2022-11-20T14:21:53;0.80;85.70
67901;DHT22;54700;51.796;10.956;2022-11-20T14:24:32;0.80;81.50
67901;DHT22;54700;51.796;10.956;2022-11-20T14:27:01;0.80;83.40
67901;DHT22;54700;51.796;10.956;2022-11-20T14:29:28;0.70;83.90
67901;DHT22;54700;51.796;10.956;2022-11-20T14:31:59;0.70;85.30
67901;DHT22;54700;51.796;10.956;2022-11-20T14:34:27;0.60;85.20
67901;DHT22;54700;51.796;10.956;2022-11-20T14:36:57;0.50;84.70
67901;DHT22;54700;51.796;10.956;2022-11-20T14:39:26;0.50;85.00
67901;DHT22;54700;51.796;10.956;2022-11-20T14:41:58;0.40;85.40
67901;DHT22;54700;51.796;10.956;2022-11-20T14:44:27;0.40;86.90
67901;DHT22;54700;51.796;10.956;2022-11-20T14:46:57;0.30;87.00
67901;DHT22;54700;51.796;10.956;2022-11-20T14:49:24;0.30;87.00
67901;DHT22;54700;51.796;10.956;2022-11-20T14:51:58;0.20;88.10
67901;DHT22;54700;51.796;10.956;2022-11-20T14:54:26;0.00;88.60
67901;DHT22;54700;51.796;10.956;2022-11-20T14:56:54;-0.10;89.30
67901;DHT22;54700;51.796;10.956;2022-11-20T14:59:22;-0.20;90.00
67901;DHT22;54700;51.796;10.956;2022-11-20T15:01:55;-0.30;90.40
67901;DHT22;54700;51.796;10.956;2022-11-20T15:04:24;-0.30;90.70
67901;DHT22;54700;51.796;10.956;2022-11-20T15:06:51;-0.30;91.00
67901;DHT22;54700;51.796;10.956;2022-11-20T15:09:19;-0.40;91.10
67901;DHT22;54700;51.796;10.956;2022-11-20T15:11:52;-0.40;91.20
67901;DHT22;54700;51.796;10.956;2022-11-20T15:14:20;-0.40;90.80
67901;DHT22;54700;51.796;10.956;2022-11-20T15:16:47;-0.40;90.90
67901;DHT22;54700;51.796;10.956;2022-11-20T15:19:17;-0.40;91.00
67901;DHT22;54700;51.796;10.956;2022-11-20T15:21:46;-0.40;91.20
67901;DHT22;54700;51.796;10.956;2022-11-20T15:24:13;-0.40;90.80
67901;DHT22;54700;51.796;10.956;2022-11-20T15:26:39;-0.50;90.80
67901;DHT22;54700;51.796;10.956;2022-11-20T15:29:07;-0.60;91.30
67901;DHT22;54700;51.796;10.956;2022-11-20T15:31:36;-0.60;91.60
67901;DHT22;54700;51.796;10.956;2022-11-20T15:34:08;-0.70;91.80
67901;DHT22;54700;51.796;10.956;2022-11-20T15:36:38;-0.70;92.00
67901;DHT22;54700;51.796;10.956;2022-11-20T15:39:05;-0.80;92.00